Time;durP1;ratioP1;P1;durP2;ratioP2;P2;SDS_P1;SDS_P2;PMS_P1;PMS_P2;Temp;Humidity;BMP_temperature;BMP_pressure;BME280_temperature;BME280_humidity;BME280_pressure;Samples;Min_cycle;Max_cycle;Signal;HPM_P1;HPM_P2
2023/09/30 00:01:18;;;;;;;23.63;9.03;;;;;;;16.80;74.58;95615.22;5007310;28;20708;-72
2023/09/30 00:03:43;;;;;;;24.47;9.17;;;;;;;16.84;74.50;95621.69;5007742;28;20265;-71
2023/09/30 00:06:09;;;;;;;23.00;9.00;;;;;;;16.94;74.39;95616.69;5000204;28;20257;-72
2023/09/30 00:08:34;;;;;;;17.23;8.50;;;;;;;16.99;73.70;95613.38;5014156;28;20226;-72
2023/09/30 00:11:00;;;;;;;24.30;8.90;;;;;;;16.99;74.10;95610.72;5019795;28;20230;-72
2023/09/30 00:13:25;;;;;;;24.47;8.73;;;;;;;17.08;73.99;95612.03;5016912;28;20681;-71
2023/09/30 00:15:51;;;;;;;21.07;8.53;;;;;;;17.03;74.29;95611.91;5016333;28;20611;-71
2023/09/30 00:18:16;;;;;;;21.63;8.37;;;;;;;17.04;73.74;95603.75;5000138;28;20277;-70
2023/09/30 00:21:01;;;;;;;17.20;8.07;;;;;;;17.13;72.85;95609.53;5023945;28;20222;-72
2023/09/30 00:23:26;;;;;;;21.97;8.63;;;;;;;16.86;73.70;95609.03;5023876;28;20863;-71
2023/09/30 00:25:52;;;;;;;19.20;8.40;;;;;;;16.89;73.71;95605.97;5007547;28;20309;-71
2023/09/30 00:28:18;;;;;;;22.67;8.10;;;;;;;17.08;73.40;95612.84;5003040;28;20337;-72
2023/09/30 00:30:47;;;;;;;19.97;8.00;;;;;;;17.07;72.84;95600.66;5006847;28;20226;-71
2023/09/30 00:33:13;;;;;;;21.13;8.40;;;;;;;16.95;73.46;95605.09;4986505;28;20716;-71
2023/09/30 00:35:39;;;;;;;17.83;8.20;;;;;;;16.84;73.97;95598.69;5006637;28;20237;-72
2023/09/30 00:38:04;;;;;;;18.27;8.37;;;;;;;16.92;73.18;95594.13;5018324;28;20226;-72
2023/09/30 00:40:30;;;;;;;15.33;8.17;;;;;;;16.86;73.23;95597.69;5018224;28;20241;-70
2023/09/30 00:42:55;;;;;;;22.93;8.47;;;;;;;16.79;73.56;95606.47;5016987;28;20739;-71
2023/09/30 00:45:21;;;;;;;14.20;8.53;;;;;;;16.76;73.91;95604.28;5016875;28;20223;-70
2023/09/30 00:47:46;;;;;;;15.83;8.17;;;;;;;16.87;74.13;95605.38;5023539;28;20668;-71
2023/09/30 00:50:13;;;;;;;21.00;8.50;;;;;;;16.77;73.87;95599.78;5016609;28;20849;-72
2023/09/30 00:52:39;;;;;;;18.40;8.40;;;;;;;16.98;73.79;95601.97;5017841;28;20284;-71
2023/09/30 00:55:05;;;;;;;20.90;8.20;;;;;;;16.94;74.03;95600.81;5016936;28;20222;-71
2023/09/30 00:57:31;;;;;;;17.37;8.43;;;;;;;17.07;74.16;95594.56;4986233;28;20341;-70
2023/09/30 00:59:57;;;;;;;21.00;8.67;;;;;;;17.09;73.69;95595.97;5001107;28;20238;-72
2023/09/30 01:02:23;;;;;;;18.83;8.17;;;;;;;17.06;74.24;95593.75;5006734;28;20321;-70
2023/09/30 01:04:48;;;;;;;17.80;8.70;;;;;;;17.02;74.64;95592.59;5006574;28;20321;-71
2023/09/30 01:07:14;;;;;;;19.03;8.53;;;;;;;17.01;74.65;95590.97;5019596;28;20242;-71
2023/09/30 01:09:39;;;;;;;19.70;8.80;;;;;;;16.86;75.64;95597.69;5005336;28;20317;-72
2023/09/30 01:12:05;;;;;;;19.30;8.50;;;;;;;16.75;76.40;95589.44;4997611;28;20759;-71
2023/09/30 01:14:32;;;;;;;18.77;8.77;;;;;;;16.77;76.52;95586.56;5023310;28;20283;-71
2023/09/30 01:16:57;;;;;;;18.27;9.20;;;;;;;16.82;76.69;95589.38;5006480;28;20233;-72
2023/09/30 01:19:26;;;;;;;19.27;8.13;;;;;;;16.75;76.54;95586.00;4983864;28;20739;-72
2023/09/30 01:21:58;;;;;;;24.57;8.50;;;;;;;16.90;76.40;95588.25;4991819;28;20288;-72
2023/09/30 01:24:24;;;;;;;20.50;8.70;;;;;;;16.90;76.94;95597.00;5006996;28;20222;-72
2023/09/30 01:26:51;;;;;;;20.80;8.87;;;;;;;16.76;77.29;95585.78;5014657;28;20232;-70
2023/09/30 01:29:17;;;;;;;18.20;8.43;;;;;;;16.75;77.35;95589.44;4999443;28;20659;-72
2023/09/30 01:31:42;;;;;;;19.70;8.60;;;;;;;16.82;77.94;95597.28;5022426;28;20251;-72
2023/09/30 01:34:08;;;;;;;18.90;8.90;;;;;;;17.08;76.62;95596.97;5039806;28;20218;-71
2023/09/30 01:36:33;;;;;;;17.13;8.37;;;;;;;16.96;77.21;95597.94;5001190;28;20230;-72
2023/09/30 01:38:59;;;;;;;21.73;8.73;;;;;;;17.06;77.55;95585.81;5022751;28;20296;-71
2023/09/30 01:41:24;;;;;;;21.47;8.77;;;;;;;17.05;77.62;95589.47;5006270;28;20230;-71
2023/09/30 01:43:50;;;;;;;21.67;8.73;;;;;;;16.97;77.72;95592.44;5023749;28;20229;-71
2023/09/30 01:46:19;;;;;;;18.33;8.40;;;;;;;17.01;77.57;95587.50;5008049;28;20229;-72
2023/09/30 01:48:44;;;;;;;16.13;8.60;;;;;;;17.07;77.46;95594.56;4999376;28;20743;-71
2023/09/30 01:51:10;;;;;;;19.47;8.17;;;;;;;16.81;77.79;95585.91;5014875;28;20226;-71
2023/09/30 01:53:36;;;;;;;15.47;8.47;;;;;;;16.70;78.29;95583.19;5022729;28;20245;-71
2023/09/30 01:56:02;;;;;;;17.70;8.70;;;;;;;16.88;77.90;95579.75;4988417;28;20234;-69
2023/09/30 01:58:28;;;;;;;16.87;8.23;;;;;;;16.81;78.47;95577.19;5015956;28;20226;-71
2023/09/30 02:00:53;;;;;;;21.57;8.60;;;;;;;16.66;78.83;95577.56;5020787;28;20226;-71
2023/09/30 02:03:19;;;;;;;17.93;8.50;;;;;;;16.85;77.96;95578.34;4988138;28;20323;-71
2023/09/30 02:05:44;;;;;;;15.93;8.33;;;;;;;16.84;77.79;95582.81;5022183;28;20225;-72
2023/09/30 02:08:10;;;;;;;16.93;8.00;;;;;;;16.76;77.98;95579.69;5005120;28;20309;-71
2023/09/30 02:10:35;;;;;;;20.53;8.30;;;;;;;16.76;78.09;95577.03;5019024;28;20602;-72
2023/09/30 02:13:01;;;;;;;18.20;8.07;;;;;;;16.60;78.46;95581.06;5012464;28;20237;-72
2023/09/30 02:15:26;;;;;;;15.33;7.60;;;;;;;16.59;77.78;95578.66;5014039;28;20300;-72
2023/09/30 02:17:53;;;;;;;18.40;8.10;;;;;;;16.42;77.99;95578.41;5012560;28;20230;-72
2023/09/30 02:20:21;;;;;;;16.60;7.97;;;;;;;16.11;79.68;95583.78;4997258;28;20239;-71
2023/09/30 02:22:47;;;;;;;15.23;7.63;;;;;;;16.38;79.38;95585.16;5014802;28;20269;-72
2023/09/30 02:25:12;;;;;;;18.00;7.67;;;;;;;16.46;78.26;95584.03;4993285;28;20234;-72
2023/09/30 02:27:41;;;;;;;20.83;8.07;;;;;;;16.40;76.85;95582.28;4997445;28;20241;-71
2023/09/30 02:30:08;;;;;;;11.53;7.30;;;;;;;16.22;77.06;95579.59;5025421;28;20229;-71
2023/09/30 02:32:34;;;;;;;19.10;7.37;;;;;;;16.20;76.91;95595.69;5039196;28;20277;-72
2023/09/30 02:34:59;;;;;;;16.20;7.37;;;;;;;16.24;76.58;95588.16;4998798;28;20321;-72
2023/09/30 02:37:25;;;;;;;20.77;7.50;;;;;;;16.34;76.04;95578.69;5025043;28;20226;-70
2023/09/30 02:39:51;;;;;;;19.63;7.53;;;;;;;16.21;76.18;95588.56;5014782;28;20280;-72
2023/09/30 02:42:16;;;;;;;16.57;7.33;;;;;;;16.11;76.00;95589.06;5016882;28;20284;-70
2023/09/30 02:44:42;;;;;;;21.63;7.40;;;;;;;16.17;75.81;95591.63;5014213;28;20229;-71
2023/09/30 02:47:08;;;;;;;15.70;6.97;;;;;;;16.20;75.20;95587.75;4992592;28;20218;-71
2023/09/30 02:49:34;;;;;;;15.13;7.10;;;;;;;16.16;73.64;95590.03;5014456;28;20222;-71
2023/09/30 02:51:59;;;;;;;12.30;6.47;;;;;;;16.11;73.35;95581.97;5017852;28;20618;-71
2023/09/30 02:54:25;;;;;;;18.63;7.00;;;;;;;15.86;73.71;95590.88;4983697;28;20230;-71
2023/09/30 02:56:56;;;;;;;18.33;6.87;;;;;;;15.74;74.33;95590.00;5001044;28;20246;-71
2023/09/30 02:59:22;;;;;;;18.80;7.00;;;;;;;15.32;75.66;95591.44;5018702;28;20234;-70
2023/09/30 03:01:48;;;;;;;19.03;6.87;;;;;;;15.47;75.84;95587.53;5022055;28;20236;-72
2023/09/30 03:04:13;;;;;;;16.77;7.13;;;;;;;15.68;75.19;95583.75;5018864;28;20226;-71
2023/09/30 03:06:39;;;;;;;12.83;6.87;;;;;;;15.73;75.70;95589.19;5021347;28;20317;-72
2023/09/30 03:09:05;;;;;;;15.63;7.23;;;;;;;15.43;75.82;95593.41;4982349;28;20659;-71
2023/09/30 03:11:31;;;;;;;16.60;7.27;;;;;;;15.28;76.28;95593.72;5002644;28;20230;-71
2023/09/30 03:13:57;;;;;;;18.30;6.90;;;;;;;15.23;77.14;95592.72;5009309;28;20345;-70
2023/09/30 03:16:24;;;;;;;15.67;6.70;;;;;;;15.19;77.41;95592.31;4991786;28;20222;-71
2023/09/30 03:18:50;;;;;;;16.10;6.70;;;;;;;15.00;77.79;95597.72;4989851;28;20230;-71
2023/09/30 03:21:16;;;;;;;16.97;7.00;;;;;;;15.36;76.98;95588.19;4999808;28;21069;-73
2023/09/30 03:23:44;;;;;;;23.97;7.47;;;;;;;15.48;77.16;95591.78;4997642;28;20230;-72
2023/09/30 03:26:13;;;;;;;16.37;7.30;;;;;;;15.25;77.74;95595.97;5001687;28;20292;-72
2023/09/30 03:28:39;;;;;;;13.43;6.93;;;;;;;15.02;78.85;95593.81;5004281;28;20242;-72
2023/09/30 03:31:05;;;;;;;15.90;7.27;;;;;;;15.20;78.19;95590.50;4985541;28;20249;-71
2023/09/30 03:33:35;;;;;;;14.13;7.30;;;;;;;15.08;78.20;95589.56;5006624;28;20234;-71
2023/09/30 03:36:03;;;;;;;17.23;7.40;;;;;;;15.19;78.68;95584.41;5013969;28;20980;-71
2023/09/30 03:38:29;;;;;;;18.97;7.10;;;;;;;15.26;78.59;95584.41;4990387;28;20230;-72
2023/09/30 03:40:55;;;;;;;13.20;7.60;;;;;;;15.31;78.75;95584.53;5017650;28;20233;-71
2023/09/30 03:43:21;;;;;;;19.03;7.10;;;;;;;15.18;79.11;95589.91;5024569;28;20888;-70
2023/09/30 03:45:47;;;;;;;19.13;7.90;;;;;;;15.16;79.95;95591.97;5017619;28;20333;-71
2023/09/30 03:48:12;;;;;;;14.93;7.10;;;;;;;15.36;79.20;95585.53;5016205;28;20869;-70
2023/09/30 03:50:46;;;;;;;18.23;7.80;;;;;;;15.18;79.84;95587.28;5016403;28;20767;-71
2023/09/30 03:53:12;;;;;;;21.40;7.60;;;;;;;15.01;80.34;95586.97;5033972;28;20757;-70
2023/09/30 03:55:38;;;;;;;21.97;7.80;;;;;;;15.07;81.02;95590.59;4987449;28;20230;-71
2023/09/30 03:58:04;;;;;;;18.77;7.90;;;;;;;14.91;80.97;95588.41;5008918;28;20226;-71
2023/09/30 04:00:29;;;;;;;15.43;7.57;;;;;;;15.01;80.16;95583.50;5016693;28;20226;-71
2023/09/30 04:02:58;;;;;;;15.60;8.10;;;;;;;15.04;80.18;95588.38;4992947;28;20238;-71
2023/09/30 04:05:29;;;;;;;15.10;7.20;;;;;;;15.06;80.12;95588.97;5039094;28;20233;-71
2023/09/30 04:07:58;;;;;;;16.27;7.90;;;;;;;14.98;80.63;95591.81;5003337;28;20730;-71
2023/09/30 04:10:23;;;;;;;16.70;7.57;;;;;;;15.09;80.27;95597.28;5008218;28;20318;-70
2023/09/30 04:12:49;;;;;;;15.90;7.50;;;;;;;15.13;79.16;95601.09;5010408;28;20321;-71
2023/09/30 04:15:15;;;;;;;14.63;7.30;;;;;;;14.83;79.91;95607.94;5039753;28;20715;-71
2023/09/30 04:17:41;;;;;;;15.67;7.60;;;;;;;14.94;79.33;95602.00;5002986;28;20243;-71
2023/09/30 04:20:10;;;;;;;17.27;7.30;;;;;;;14.98;77.82;95600.56;5018819;28;20315;-69
2023/09/30 04:22:36;;;;;;;23.13;7.77;;;;;;;15.09;78.46;95599.91;5018613;28;20236;-71
2023/09/30 04:25:08;;;;;;;14.17;7.90;;;;;;;14.92;79.25;95603.22;4993243;28;20229;-71
2023/09/30 04:27:33;;;;;;;14.33;7.90;;;;;;;14.90;79.28;95608.72;4993476;28;20232;-78
2023/09/30 04:29:59;;;;;;;18.33;7.20;;;;;;;14.95;78.42;95613.34;5000521;28;20680;-78
2023/09/30 04:32:27;;;;;;;12.07;7.27;;;;;;;14.85;79.14;95608.53;5024037;28;20222;-77
2023/09/30 04:34:52;;;;;;;17.27;7.20;;;;;;;15.05;78.56;95619.78;4990335;28;20226;-78
2023/09/30 04:37:18;;;;;;;18.80;6.97;;;;;;;14.60;79.35;95611.03;4991941;28;20246;-78
2023/09/30 04:39:45;;;;;;;16.17;6.80;;;;;;;14.99;77.36;95610.09;5015205;28;20378;-78
2023/09/30 04:42:11;;;;;;;17.57;6.47;;;;;;;15.15;76.67;95620.16;5025457;28;20268;-78
2023/09/30 04:44:38;;;;;;;19.73;6.83;;;;;;;14.77;78.33;95620.09;5022398;28;20290;-79
2023/09/30 04:47:04;;;;;;;13.30;6.70;;;;;;;14.89;77.62;95625.53;4997489;28;20237;-77
2023/09/30 04:49:30;;;;;;;14.60;7.00;;;;;;;14.62;78.13;95624.81;5007329;28;20226;-78
2023/09/30 04:51:56;;;;;;;14.27;6.90;;;;;;;14.81;77.31;95628.38;5017461;28;20782;-77
2023/09/30 04:54:21;;;;;;;16.27;6.80;;;;;;;14.66;77.84;95628.63;5014389;28;20230;-78
2023/09/30 04:56:47;;;;;;;15.37;6.80;;;;;;;14.72;78.05;95627.81;5014177;28;20276;-77
2023/09/30 04:59:13;;;;;;;19.23;6.93;;;;;;;14.76;77.49;95625.56;5004071;28;20275;-77
2023/09/30 05:01:39;;;;;;;13.63;6.50;;;;;;;14.87;77.13;95626.75;5022842;28;20226;-77
2023/09/30 05:04:04;;;;;;;16.97;6.90;;;;;;;15.00;75.75;95622.22;5013058;28;20233;-78
2023/09/30 05:06:32;;;;;;;13.20;6.37;;;;;;;15.10;76.07;95627.06;5040117;28;20229;-76
2023/09/30 05:08:58;;;;;;;14.77;6.30;;;;;;;14.81;76.77;95618.66;5020091;28;20256;-78
2023/09/30 05:11:24;;;;;;;13.43;6.50;;;;;;;14.52;77.76;95624.41;5039544;28;21024;-77
2023/09/30 05:13:50;;;;;;;14.63;6.30;;;;;;;14.59;77.98;95634.97;5022202;28;20243;-72
2023/09/30 05:16:17;;;;;;;15.23;6.67;;;;;;;14.63;77.90;95641.44;5003413;28;20230;-70
2023/09/30 05:18:43;;;;;;;15.00;6.23;;;;;;;14.90;77.93;95636.91;5019317;28;20261;-71
2023/09/30 05:21:08;;;;;;;14.00;6.67;;;;;;;15.00;77.20;95638.06;5017070;28;20701;-71
2023/09/30 05:23:34;;;;;;;13.33;6.60;;;;;;;15.05;77.57;95629.50;5017855;28;20276;-71
2023/09/30 05:26:00;;;;;;;16.43;7.10;;;;;;;15.15;76.25;95630.69;5020631;28;20233;-71
2023/09/30 05:28:27;;;;;;;14.10;7.43;;;;;;;14.98;76.28;95636.63;5015975;28;20237;-72
2023/09/30 05:30:53;;;;;;;14.17;6.73;;;;;;;15.14;76.42;95634.34;5023012;28;20293;-72
2023/09/30 05:33:18;;;;;;;12.30;6.70;;;;;;;15.22;76.67;95638.56;5006417;28;20795;-71
2023/09/30 05:35:44;;;;;;;16.87;7.20;;;;;;;15.21;77.37;95647.53;5010423;28;20234;-72
2023/09/30 05:38:10;;;;;;;20.23;7.20;;;;;;;15.41;77.17;95646.38;5016777;28;20234;-70
2023/09/30 05:40:51;;;;;;;15.27;7.40;;;;;;;15.46;75.92;95646.59;5000018;28;20230;-72
2023/09/30 05:43:16;;;;;;;14.13;6.97;;;;;;;15.55;75.75;95646.34;5015764;28;20232;-71
2023/09/30 05:45:49;;;;;;;18.70;7.67;;;;;;;15.59;75.53;95650.19;5013502;28;20603;-71
2023/09/30 05:48:25;;;;;;;19.67;7.53;;;;;;;15.69;74.57;95650.53;5000620;28;20232;-70
2023/09/30 05:50:51;;;;;;;17.50;7.50;;;;;;;15.69;74.37;95653.97;5023336;28;20333;-72
2023/09/30 05:53:29;;;;;;;19.97;7.40;;;;;;;15.82;73.95;95653.06;5024745;28;20240;-72
2023/09/30 05:55:59;;;;;;;18.30;7.73;;;;;;;15.85;73.16;95656.09;4978897;28;20233;-72
2023/09/30 05:58:26;;;;;;;15.73;8.03;;;;;;;15.89;73.41;95652.00;4998710;28;20230;-72
2023/09/30 06:00:54;;;;;;;16.67;7.60;;;;;;;15.97;74.63;95651.75;5023863;28;20233;-71
2023/09/30 06:03:22;;;;;;;23.27;8.13;;;;;;;16.07;72.41;95654.69;5024254;28;20238;-71
2023/09/30 06:05:48;;;;;;;11.90;7.57;;;;;;;16.20;72.58;95659.06;5024958;28;20245;-70
2023/09/30 06:08:14;;;;;;;18.63;7.53;;;;;;;16.20;72.42;95661.72;5012938;28;20230;-71
2023/09/30 06:10:43;;;;;;;17.47;8.00;;;;;;;16.18;72.49;95663.78;5015203;28;20221;-72
2023/09/30 06:13:15;;;;;;;17.13;7.70;;;;;;;16.33;71.90;95661.63;5018804;28;20226;-71
2023/09/30 06:15:41;;;;;;;20.13;7.80;;;;;;;16.41;71.29;95663.16;4993165;28;20248;-72
2023/09/30 06:18:07;;;;;;;18.67;8.03;;;;;;;16.51;71.33;95663.47;5031184;28;20237;-71
2023/09/30 06:20:33;;;;;;;20.77;8.03;;;;;;;16.54;70.73;95673.66;5022890;28;20275;-71
2023/09/30 06:23:00;;;;;;;24.10;8.20;;;;;;;16.52;70.40;95665.13;5018352;28;20236;-70
2023/09/30 06:25:27;;;;;;;16.43;8.17;;;;;;;16.56;70.31;95672.41;5015540;28;20210;-70
2023/09/30 06:27:52;;;;;;;21.47;8.40;;;;;;;16.70;69.48;95667.78;5013638;28;20230;-71
2023/09/30 06:30:21;;;;;;;18.23;7.53;;;;;;;16.77;69.72;95673.81;5020178;28;20922;-71
2023/09/30 06:32:47;;;;;;;21.80;8.10;;;;;;;16.83;68.92;95676.41;5038586;28;20226;-71
2023/09/30 06:35:12;;;;;;;21.10;8.03;;;;;;;16.90;68.53;95670.25;5015442;28;20278;-72
2023/09/30 06:37:39;;;;;;;18.23;7.53;;;;;;;17.00;68.36;95675.84;5022433;28;20700;-71
2023/09/30 06:40:08;;;;;;;15.47;7.33;;;;;;;17.04;68.90;95672.53;5021962;28;20715;-70
2023/09/30 06:42:35;;;;;;;17.50;7.53;;;;;;;17.15;66.77;95668.31;5022190;28;20226;-71
2023/09/30 06:45:01;;;;;;;16.83;7.27;;;;;;;17.16;68.51;95668.09;5038620;28;20276;-71
2023/09/30 06:47:27;;;;;;;16.47;7.70;;;;;;;17.20;67.00;95673.75;5006323;28;20287;-71
2023/09/30 06:49:53;;;;;;;15.50;7.50;;;;;;;17.25;68.01;95676.53;5015269;28;20219;-71
2023/09/30 06:52:19;;;;;;;18.70;7.00;;;;;;;17.33;66.87;95674.41;5000855;28;20237;-72
2023/09/30 06:54:45;;;;;;;15.53;7.60;;;;;;;17.40;66.19;95679.63;4985426;28;20313;-71
2023/09/30 06:57:10;;;;;;;18.30;7.30;;;;;;;17.45;65.68;95682.41;5021212;28;20801;-70
2023/09/30 06:59:37;;;;;;;19.90;7.40;;;;;;;17.53;65.45;95689.28;5011850;28;20222;-70
2023/09/30 07:02:03;;;;;;;19.77;7.20;;;;;;;17.61;64.16;95679.16;5002131;28;20783;-72
2023/09/30 07:04:32;;;;;;;15.90;7.10;;;;;;;17.72;64.51;95681.03;4992004;28;20226;-72
2023/09/30 07:06:58;;;;;;;16.27;7.30;;;;;;;17.69;64.14;95686.81;4994720;28;20727;-72
2023/09/30 07:09:24;;;;;;;16.80;6.80;;;;;;;17.82;62.47;95691.09;5021869;28;20248;-77
2023/09/30 07:11:49;;;;;;;21.13;6.70;;;;;;;17.87;63.64;95693.88;5020928;28;21785;-76
2023/09/30 07:14:15;;;;;;;20.33;7.37;;;;;;;17.94;63.53;95689.28;5017432;28;20268;-76
2023/09/30 07:16:40;;;;;;;21.40;7.10;;;;;;;17.96;62.49;95684.59;5035706;28;20284;-75
2023/09/30 07:19:06;;;;;;;18.27;6.77;;;;;;;17.97;62.68;95681.72;5027155;28;20309;-76
2023/09/30 07:21:31;;;;;;;19.17;7.10;;;;;;;18.12;62.95;95687.41;5023505;28;20230;-76
2023/09/30 07:23:57;;;;;;;16.93;6.63;;;;;;;18.13;61.69;95685.53;5041660;28;20246;-75
2023/09/30 07:26:25;;;;;;;13.97;6.77;;;;;;;18.24;60.42;95684.78;5009451;28;20643;-75
2023/09/30 07:28:51;;;;;;;15.53;6.60;;;;;;;18.32;61.14;95684.41;5006792;28;20812;-76
2023/09/30 07:31:16;;;;;;;16.97;6.57;;;;;;;18.36;60.99;95692.75;5019343;28;20234;-76
2023/09/30 07:33:42;;;;;;;16.60;6.73;;;;;;;18.32;60.81;95696.91;5024803;28;20295;-77
2023/09/30 07:36:07;;;;;;;12.53;6.47;;;;;;;18.37;59.86;95691.69;5025622;28;20229;-76
2023/09/30 07:38:33;;;;;;;17.57;6.90;;;;;;;18.53;60.06;95694.50;5004719;28;20234;-76
2023/09/30 07:41:00;;;;;;;17.87;7.00;;;;;;;18.63;58.80;95694.75;4997697;28;20253;-76
2023/09/30 07:43:28;;;;;;;13.20;6.90;;;;;;;18.72;58.51;95696.00;5025678;28;20229;-75
2023/09/30 07:45:53;;;;;;;16.77;6.50;;;;;;;18.75;58.11;95689.44;5024996;28;20234;-76
2023/09/30 07:48:19;;;;;;;15.57;7.20;;;;;;;18.70;58.99;95690.13;5018002;28;20364;-76
2023/09/30 07:50:45;;;;;;;17.60;6.60;;;;;;;18.79;58.68;95690.59;5024245;28;20276;-77
2023/09/30 07:53:12;;;;;;;17.37;6.70;;;;;;;18.86;58.37;95691.28;5041457;28;20237;-77
2023/09/30 07:55:37;;;;;;;17.60;6.70;;;;;;;18.93;58.33;95689.31;5017401;28;20238;-76
2023/09/30 07:58:03;;;;;;;17.33;6.70;;;;;;;18.94;57.65;95693.56;5026502;28;20622;-76
2023/09/30 08:00:29;;;;;;;15.67;6.50;;;;;;;19.01;57.11;95688.16;5015899;28;20692;-76
2023/09/30 08:02:55;;;;;;;22.93;6.33;;;;;;;19.05;56.91;95690.13;5007684;28;20291;-76
2023/09/30 08:05:20;;;;;;;13.97;6.27;;;;;;;19.34;55.74;95694.47;5003439;28;20230;-77
2023/09/30 08:07:46;;;;;;;11.53;6.33;;;;;;;19.41;56.36;95692.50;5010553;28;20229;-75
2023/09/30 08:10:13;;;;;;;12.40;6.43;;;;;;;19.38;56.53;95694.81;4984200;28;20225;-76
2023/09/30 08:12:39;;;;;;;14.63;6.10;;;;;;;19.45;56.19;95692.81;4991314;28;20257;-75
2023/09/30 08:15:06;;;;;;;13.73;6.10;;;;;;;19.59;55.63;95688.84;5005148;28;20230;-75
2023/09/30 08:17:33;;;;;;;12.57;5.97;;;;;;;19.52;55.96;95701.47;5013947;28;20731;-77
2023/09/30 08:19:59;;;;;;;14.67;6.10;;;;;;;19.59;55.54;95686.19;4997145;28;20680;-77
2023/09/30 08:22:27;;;;;;;15.63;5.90;;;;;;;19.77;55.57;95687.88;4991185;28;20798;-76
2023/09/30 08:24:54;;;;;;;18.37;6.03;;;;;;;19.80;54.82;95693.50;4991368;28;20230;-76
2023/09/30 08:27:19;;;;;;;15.33;6.23;;;;;;;20.07;54.12;95688.41;5018783;28;20240;-75
2023/09/30 08:29:45;;;;;;;19.53;5.80;;;;;;;20.20;53.93;95689.97;5019065;28;20230;-76
2023/09/30 08:32:11;;;;;;;14.17;5.80;;;;;;;20.27;53.51;95688.81;5023806;28;20614;-76
2023/09/30 08:34:37;;;;;;;12.83;5.83;;;;;;;20.25;54.58;95696.22;5014208;28;20234;-76
2023/09/30 08:37:02;;;;;;;16.27;5.90;;;;;;;20.37;53.25;95691.59;5023368;28;20244;-76
2023/09/30 08:39:28;;;;;;;16.93;6.20;;;;;;;20.58;52.51;95695.41;5000365;28;20237;-76
2023/09/30 08:41:55;;;;;;;15.90;6.40;;;;;;;20.68;52.02;95682.28;4997902;28;20234;-75
2023/09/30 08:44:21;;;;;;;16.03;7.20;;;;;;;20.94;49.28;95683.44;4999922;28;20248;-75
2023/09/30 08:46:47;;;;;;;15.80;6.83;;;;;;;20.91;49.01;95678.59;4997565;28;20613;-75
2023/09/30 08:49:14;;;;;;;15.67;6.53;;;;;;;20.60;51.39;95680.00;5007031;28;20221;-76
2023/09/30 08:51:39;;;;;;;16.03;7.00;;;;;;;20.72;50.50;95676.22;4998738;28;20325;-75
2023/09/30 08:54:05;;;;;;;18.00;6.97;;;;;;;20.95;50.24;95674.38;5019484;28;20636;-77
2023/09/30 08:56:34;;;;;;;17.43;7.80;;;;;;;20.96;46.11;95678.66;5019301;28;20222;-77
2023/09/30 08:59:01;;;;;;;19.70;7.63;;;;;;;21.03;46.78;95668.66;4997903;28;20380;-76
2023/09/30 09:01:30;;;;;;;20.60;7.90;;;;;;;21.24;46.64;95675.88;4999988;28;20222;-77
2023/09/30 09:03:56;;;;;;;14.40;7.83;;;;;;;21.23;46.71;95668.97;4998783;28;20324;-77
2023/09/30 09:06:25;;;;;;;18.07;8.33;;;;;;;21.36;45.81;95669.38;5038582;28;20230;-77
2023/09/30 09:08:51;;;;;;;18.27;8.53;;;;;;;21.54;44.98;95668.28;5017142;28;20266;-76
2023/09/30 09:11:17;;;;;;;17.90;8.23;;;;;;;21.57;45.88;95662.44;5024388;28;20228;-75
2023/09/30 09:13:50;;;;;;;23.20;8.30;;;;;;;21.46;46.56;95660.72;5006271;28;20234;-75
2023/09/30 09:16:17;;;;;;;17.37;8.20;;;;;;;21.58;43.96;95656.06;5007816;28;20238;-77
2023/09/30 09:18:43;;;;;;;17.20;8.03;;;;;;;21.60;45.95;95659.28;5006262;28;20249;-78
2023/09/30 09:21:13;;;;;;;20.60;8.47;;;;;;;21.68;44.10;95656.19;5040324;28;21029;-75
2023/09/30 09:23:45;;;;;;;17.07;8.30;;;;;;;21.82;45.00;95653.91;5000641;28;20234;-75
2023/09/30 09:26:12;;;;;;;15.73;8.37;;;;;;;21.86;45.75;95655.84;5000798;28;20222;-75
2023/09/30 09:28:42;;;;;;;15.67;7.80;;;;;;;21.79;44.61;95654.41;4989027;28;20230;-76
2023/09/30 09:31:24;;;;;;;16.33;8.40;;;;;;;21.92;44.52;95657.53;5023375;28;20284;-71
2023/09/30 09:33:50;;;;;;;17.80;7.63;;;;;;;22.23;42.71;95655.13;5006053;28;20234;-76
2023/09/30 09:36:16;;;;;;;19.83;8.43;;;;;;;22.18;44.39;95647.06;5013989;28;20364;-72
2023/09/30 09:38:49;;;;;;;19.30;6.97;;;;;;;22.39;42.52;95649.66;5008158;28;20267;-71
2023/09/30 09:41:15;;;;;;;24.00;7.10;;;;;;;22.52;42.99;95651.88;5006827;28;20230;-71
2023/09/30 09:43:44;;;;;;;16.67;7.10;;;;;;;22.64;42.52;95652.53;5022853;28;20261;-72
2023/09/30 09:46:09;;;;;;;13.97;6.40;;;;;;;22.68;42.86;95645.63;5010329;28;20264;-72
2023/09/30 09:48:36;;;;;;;12.13;6.03;;;;;;;22.57;41.98;95643.91;5015325;28;20677;-72
2023/09/30 09:51:02;;;;;;;20.97;7.20;;;;;;;22.70;41.77;95645.38;5020181;28;20236;-71
2023/09/30 09:53:30;;;;;;;13.83;6.53;;;;;;;22.74;42.05;95638.44;5001881;28;20221;-73
2023/09/30 09:55:57;;;;;;;21.53;6.00;;;;;;;22.81;41.04;95644.38;5013396;28;20631;-72
2023/09/30 09:58:23;;;;;;;10.63;5.95;;;;;;;22.88;40.71;95642.28;5006861;28;20226;-73
2023/09/30 10:00:49;;;;;;;14.43;6.10;;;;;;;22.90;40.77;95634.03;5021001;28;20223;-72
2023/09/30 10:03:14;;;;;;;11.77;5.70;;;;;;;22.91;41.18;95636.41;4998531;28;20264;-72
2023/09/30 10:05:40;;;;;;;14.33;5.90;;;;;;;22.98;43.11;95630.84;4991796;28;20268;-73
2023/09/30 10:08:08;;;;;;;12.43;5.72;;;;;;;23.23;40.42;95633.66;5023700;28;20237;-72
2023/09/30 10:10:37;;;;;;;16.83;5.70;;;;;;;23.18;39.69;95626.41;4999832;28;20608;-73
2023/09/30 10:13:03;;;;;;;13.63;5.82;;;;;;;23.10;41.60;95615.41;5000450;28;20297;-72
2023/09/30 10:15:29;;;;;;;20.00;5.50;;;;;;;23.24;38.99;95620.03;5016191;28;20233;-74
2023/09/30 10:18:06;;;;;;;12.70;5.80;;;;;;;23.17;40.05;95613.31;5023515;28;20238;-72
2023/09/30 10:20:33;;;;;;;11.27;5.28;;;;;;;23.17;39.26;95614.13;5020974;28;20229;-72
2023/09/30 10:23:17;;;;;;;10.43;4.90;;;;;;;23.22;37.30;95610.66;4999235;28;20237;-73
2023/09/30 10:25:49;;;;;;;14.23;5.20;;;;;;;23.41;38.57;95609.97;5023793;28;20259;-71
2023/09/30 10:28:37;;;;;;;15.60;4.72;;;;;;;23.65;38.37;95610.28;5013827;28;20229;-73
2023/09/30 10:31:21;;;;;;;13.63;4.68;;;;;;;23.79;38.33;95610.59;5011711;28;20355;-73
2023/09/30 10:34:01;;;;;;;11.73;4.70;;;;;;;23.90;37.76;95612.22;5005154;28;20238;-72
2023/09/30 10:36:30;;;;;;;11.32;4.15;;;;;;;24.00;36.00;95610.34;5018130;28;20237;-75
2023/09/30 10:38:55;;;;;;;12.63;4.57;;;;;;;23.97;35.09;95608.22;5022869;28;20257;-77
2023/09/30 10:41:44;;;;;;;12.00;4.30;;;;;;;24.05;34.62;95609.53;4989463;28;20265;-75
2023/09/30 10:44:22;;;;;;;10.65;4.55;;;;;;;24.12;34.15;95609.34;5023301;28;20249;-78
2023/09/30 10:46:57;;;;;;;11.00;4.47;;;;;;;24.17;35.47;95606.66;5024911;28;20688;-78
2023/09/30 10:49:23;;;;;;;16.73;4.60;;;;;;;24.24;35.58;95604.53;5025235;28;20694;-75
2023/09/30 10:51:51;;;;;;;12.27;4.35;;;;;;;24.27;35.71;95601.28;5026018;28;20237;-75
2023/09/30 10:54:24;;;;;;;12.20;4.50;;;;;;;24.39;35.01;95594.59;5009321;28;20806;-77
2023/09/30 10:56:49;;;;;;;12.70;4.60;;;;;;;24.50;34.33;95590.03;5018042;28;20257;-76
2023/09/30 10:59:22;;;;;;;20.95;4.63;;;;;;;24.64;34.20;95599.94;5017734;28;20261;-76
2023/09/30 11:01:48;;;;;;;12.60;4.30;;;;;;;24.50;34.31;95592.72;5018379;28;20253;-76
2023/09/30 11:04:15;;;;;;;12.15;4.53;;;;;;;24.66;33.97;95591.63;5025500;28;20660;-75
2023/09/30 11:06:41;;;;;;;10.35;4.72;;;;;;;24.67;33.69;95585.19;5011484;28;20264;-76
2023/09/30 11:09:12;;;;;;;7.03;4.35;;;;;;;24.67;33.55;95594.00;5025290;28;20222;-76
2023/09/30 11:11:48;;;;;;;12.35;4.55;;;;;;;24.68;33.31;95584.91;5017547;28;20246;-77
2023/09/30 11:14:29;;;;;;;13.15;4.85;;;;;;;24.77;34.13;95594.03;4995315;28;20237;-77
2023/09/30 11:17:00;;;;;;;16.17;5.22;;;;;;;24.81;33.48;95585.47;5025715;28;20321;-76
2023/09/30 11:19:27;;;;;;;10.27;5.00;;;;;;;24.83;33.31;95588.66;5006870;28;20225;-76
2023/09/30 11:21:53;;;;;;;15.88;5.13;;;;;;;24.94;33.68;95571.47;5008454;28;20222;-77
2023/09/30 11:24:19;;;;;;;19.98;5.75;;;;;;;24.87;35.15;95571.78;4992992;28;20218;-76